sensor_id;sensor_type;location;lat;lon;timestamp;P1;durP1;ratioP1;P2;durP2;ratioP2
55136;SDS011;41032;47.818;-3.732;2022-08-20T00:01:11;7.78;;;2.10;;
55136;SDS011;41032;47.818;-3.732;2022-08-20T00:03:40;7.28;;;2.17;;
55136;SDS011;41032;47.818;-3.732;2022-08-20T00:06:12;6.35;;;1.55;;
55136;SDS011;41032;47.818;-3.732;2022-08-20T00:08:41;7.38;;;1.85;;
55136;SDS011;41032;47.818;-3.732;2022-08-20T00:11:12;4.80;;;1.70;;
55136;SDS011;41032;47.818;-3.732;2022-08-20T00:13:50;7.90;;;2.30;;
55136;SDS011;41032;47.818;-3.732;2022-08-20T00:16:20;5.13;;;1.80;;
55136;SDS011;41032;47.818;-3.732;2022-08-20T00:18:50;8.70;;;2.17;;
55136;SDS011;41032;47.818;-3.732;2022-08-20T00:21:19;5.30;;;1.70;;
55136;SDS011;41032;47.818;-3.732;2022-08-20T00:23:48;8.60;;;2.25;;
55136;SDS011;41032;47.818;-3.732;2022-08-20T00:26:19;6.00;;;2.17;;
55136;SDS011;41032;47.818;-3.732;2022-08-20T00:28:48;6.15;;;1.85;;
55136;SDS011;41032;47.818;-3.732;2022-08-20T00:31:18;5.35;;;2.28;;
55136;SDS011;41032;47.818;-3.732;2022-08-20T00:33:47;7.20;;;1.85;;
55136;SDS011;41032;47.818;-3.732;2022-08-20T00:36:17;5.57;;;1.90;;
55136;SDS011;41032;47.818;-3.732;2022-08-20T00:38:45;5.03;;;1.85;;
55136;SDS011;41032;47.818;-3.732;2022-08-20T00:41:17;6.57;;;1.80;;
55136;SDS011;41032;47.818;-3.732;2022-08-20T00:43:49;5.65;;;1.92;;
55136;SDS011;41032;47.818;-3.732;2022-08-20T00:46:20;5.25;;;1.60;;
55136;SDS011;41032;47.818;-3.732;2022-08-20T00:48:52;5.47;;;1.40;;
55136;SDS011;41032;47.818;-3.732;2022-08-20T00:51:26;8.15;;;2.40;;
55136;SDS011;41032;47.818;-3.732;2022-08-20T00:56:46;4.70;;;1.50;;
55136;SDS011;41032;47.818;-3.732;2022-08-20T00:59:19;4.70;;;1.67;;
55136;SDS011;41032;47.818;-3.732;2022-08-20T01:01:49;7.13;;;1.77;;
55136;SDS011;41032;47.818;-3.732;2022-08-20T01:04:17;8.13;;;2.22;;
55136;SDS011;41032;47.818;-3.732;2022-08-20T01:06:46;4.80;;;2.00;;
55136;SDS011;41032;47.818;-3.732;2022-08-20T01:09:15;8.43;;;2.40;;
55136;SDS011;41032;47.818;-3.732;2022-08-20T01:11:44;6.07;;;1.92;;
55136;SDS011;41032;47.818;-3.732;2022-08-20T01:14:12;8.27;;;1.90;;
55136;SDS011;41032;47.818;-3.732;2022-08-20T01:17:02;7.15;;;1.88;;
55136;SDS011;41032;47.818;-3.732;2022-08-20T01:19:34;5.55;;;1.77;;
55136;SDS011;41032;47.818;-3.732;2022-08-20T01:22:07;6.85;;;1.75;;
55136;SDS011;41032;47.818;-3.732;2022-08-20T01:24:56;5.78;;;1.88;;
55136;SDS011;41032;47.818;-3.732;2022-08-20T01:27:31;4.65;;;1.30;;
55136;SDS011;41032;47.818;-3.732;2022-08-20T01:30:00;5.43;;;1.60;;
55136;SDS011;41032;47.818;-3.732;2022-08-20T01:32:28;6.00;;;1.85;;
55136;SDS011;41032;47.818;-3.732;2022-08-20T01:34:56;4.80;;;1.63;;
55136;SDS011;41032;47.818;-3.732;2022-08-20T01:37:26;7.28;;;2.00;;
55136;SDS011;41032;47.818;-3.732;2022-08-20T01:39:53;7.07;;;1.80;;
55136;SDS011;41032;47.818;-3.732;2022-08-20T01:42:24;5.90;;;2.08;;
55136;SDS011;41032;47.818;-3.732;2022-08-20T01:44:57;4.40;;;1.60;;
55136;SDS011;41032;47.818;-3.732;2022-08-20T01:47:27;8.70;;;2.08;;
55136;SDS011;41032;47.818;-3.732;2022-08-20T01:49:59;6.30;;;2.00;;
55136;SDS011;41032;47.818;-3.732;2022-08-20T01:52:32;4.60;;;1.55;;
55136;SDS011;41032;47.818;-3.732;2022-08-20T01:55:06;5.93;;;1.73;;
55136;SDS011;41032;47.818;-3.732;2022-08-20T01:57:36;10.85;;;1.83;;
55136;SDS011;41032;47.818;-3.732;2022-08-20T02:00:07;5.68;;;1.85;;
55136;SDS011;41032;47.818;-3.732;2022-08-20T02:02:39;9.25;;;1.50;;
55136;SDS011;41032;47.818;-3.732;2022-08-20T02:05:08;5.05;;;1.50;;
55136;SDS011;41032;47.818;-3.732;2022-08-20T02:07:37;4.45;;;1.75;;
55136;SDS011;41032;47.818;-3.732;2022-08-20T02:10:05;4.40;;;1.27;;
55136;SDS011;41032;47.818;-3.732;2022-08-20T02:12:35;5.80;;;1.75;;
55136;SDS011;41032;47.818;-3.732;2022-08-20T02:15:06;6.07;;;1.80;;
55136;SDS011;41032;47.818;-3.732;2022-08-20T02:17:35;6.82;;;1.60;;
55136;SDS011;41032;47.818;-3.732;2022-08-20T02:20:10;5.72;;;1.75;;
55136;SDS011;41032;47.818;-3.732;2022-08-20T02:25:29;9.20;;;1.33;;
55136;SDS011;41032;47.818;-3.732;2022-08-20T02:28:02;3.53;;;1.25;;
55136;SDS011;41032;47.818;-3.732;2022-08-20T02:30:38;6.03;;;1.95;;
55136;SDS011;41032;47.818;-3.732;2022-08-20T02:33:10;3.00;;;1.35;;
55136;SDS011;41032;47.818;-3.732;2022-08-20T02:35:41;5.45;;;1.70;;
55136;SDS011;41032;47.818;-3.732;2022-08-20T02:38:10;5.50;;;1.30;;
55136;SDS011;41032;47.818;-3.732;2022-08-20T02:40:40;5.00;;;1.50;;
55136;SDS011;41032;47.818;-3.732;2022-08-20T02:43:09;3.53;;;1.10;;
55136;SDS011;41032;47.818;-3.732;2022-08-20T02:45:39;8.73;;;1.98;;
55136;SDS011;41032;47.818;-3.732;2022-08-20T02:48:10;5.97;;;2.05;;
55136;SDS011;41032;47.818;-3.732;2022-08-20T02:50:47;9.48;;;1.73;;
55136;SDS011;41032;47.818;-3.732;2022-08-20T02:53:16;5.65;;;1.45;;
55136;SDS011;41032;47.818;-3.732;2022-08-20T02:55:45;6.68;;;1.90;;
55136;SDS011;41032;47.818;-3.732;2022-08-20T02:58:14;6.10;;;1.48;;
55136;SDS011;41032;47.818;-3.732;2022-08-20T03:00:43;6.90;;;1.90;;
55136;SDS011;41032;47.818;-3.732;2022-08-20T03:03:12;4.95;;;1.50;;
55136;SDS011;41032;47.818;-3.732;2022-08-20T03:05:42;4.93;;;1.30;;
55136;SDS011;41032;47.818;-3.732;2022-08-20T03:08:12;4.70;;;1.70;;
55136;SDS011;41032;47.818;-3.732;2022-08-20T03:10:42;6.40;;;1.83;;
55136;SDS011;41032;47.818;-3.732;2022-08-20T03:13:12;8.50;;;1.85;;
55136;SDS011;41032;47.818;-3.732;2022-08-20T03:15:44;4.55;;;1.48;;
55136;SDS011;41032;47.818;-3.732;2022-08-20T03:18:14;8.18;;;1.65;;
55136;SDS011;41032;47.818;-3.732;2022-08-20T03:20:44;3.25;;;1.35;;
55136;SDS011;41032;47.818;-3.732;2022-08-20T03:23:13;4.03;;;1.35;;
55136;SDS011;41032;47.818;-3.732;2022-08-20T03:25:42;4.88;;;1.40;;
55136;SDS011;41032;47.818;-3.732;2022-08-20T03:28:11;5.57;;;1.30;;
55136;SDS011;41032;47.818;-3.732;2022-08-20T03:30:40;6.53;;;1.48;;
55136;SDS011;41032;47.818;-3.732;2022-08-20T03:33:08;3.30;;;1.17;;
55136;SDS011;41032;47.818;-3.732;2022-08-20T03:35:37;6.90;;;1.70;;
55136;SDS011;41032;47.818;-3.732;2022-08-20T03:38:07;3.90;;;1.45;;
55136;SDS011;41032;47.818;-3.732;2022-08-20T03:40:36;3.60;;;1.65;;
55136;SDS011;41032;47.818;-3.732;2022-08-20T03:43:05;5.45;;;1.55;;
55136;SDS011;41032;47.818;-3.732;2022-08-20T03:45:35;6.20;;;1.83;;
55136;SDS011;41032;47.818;-3.732;2022-08-20T03:48:05;6.88;;;1.58;;
55136;SDS011;41032;47.818;-3.732;2022-08-20T03:50:35;6.22;;;1.73;;
55136;SDS011;41032;47.818;-3.732;2022-08-20T03:53:04;6.80;;;1.30;;
55136;SDS011;41032;47.818;-3.732;2022-08-20T03:55:32;3.72;;;1.63;;
55136;SDS011;41032;47.818;-3.732;2022-08-20T03:58:03;6.95;;;1.77;;
55136;SDS011;41032;47.818;-3.732;2022-08-20T04:00:36;6.65;;;2.00;;
55136;SDS011;41032;47.818;-3.732;2022-08-20T04:03:16;4.53;;;1.33;;
55136;SDS011;41032;47.818;-3.732;2022-08-20T04:05:46;5.93;;;1.20;;
55136;SDS011;41032;47.818;-3.732;2022-08-20T04:08:17;4.40;;;1.40;;
55136;SDS011;41032;47.818;-3.732;2022-08-20T04:10:52;3.50;;;1.33;;
55136;SDS011;41032;47.818;-3.732;2022-08-20T04:13:23;5.93;;;1.40;;
55136;SDS011;41032;47.818;-3.732;2022-08-20T04:15:53;5.97;;;1.42;;
55136;SDS011;41032;47.818;-3.732;2022-08-20T04:18:21;3.60;;;1.20;;
55136;SDS011;41032;47.818;-3.732;2022-08-20T04:20:52;4.80;;;1.48;;
55136;SDS011;41032;47.818;-3.732;2022-08-20T04:23:20;3.40;;;0.95;;
55136;SDS011;41032;47.818;-3.732;2022-08-20T04:25:49;2.88;;;1.45;;
55136;SDS011;41032;47.818;-3.732;2022-08-20T04:28:18;5.95;;;1.60;;
55136;SDS011;41032;47.818;-3.732;2022-08-20T04:30:53;5.10;;;1.40;;
55136;SDS011;41032;47.818;-3.732;2022-08-20T04:33:22;3.13;;;1.20;;
55136;SDS011;41032;47.818;-3.732;2022-08-20T04:35:52;3.25;;;1.40;;
55136;SDS011;41032;47.818;-3.732;2022-08-20T04:38:21;3.05;;;1.42;;
55136;SDS011;41032;47.818;-3.732;2022-08-20T04:40:50;4.18;;;1.38;;
55136;SDS011;41032;47.818;-3.732;2022-08-20T04:43:19;3.40;;;1.17;;
55136;SDS011;41032;47.818;-3.732;2022-08-20T04:45:49;4.63;;;1.65;;
55136;SDS011;41032;47.818;-3.732;2022-08-20T04:48:17;3.45;;;1.30;;
55136;SDS011;41032;47.818;-3.732;2022-08-20T04:50:48;6.15;;;1.83;;
55136;SDS011;41032;47.818;-3.732;2022-08-20T04:53:17;3.97;;;1.35;;
55136;SDS011;41032;47.818;-3.732;2022-08-20T04:55:48;6.68;;;1.73;;
55136;SDS011;41032;47.818;-3.732;2022-08-20T04:58:19;5.22;;;1.30;;
55136;SDS011;41032;47.818;-3.732;2022-08-20T05:00:51;7.85;;;2.15;;
55136;SDS011;41032;47.818;-3.732;2022-08-20T05:03:21;7.13;;;1.85;;
55136;SDS011;41032;47.818;-3.732;2022-08-20T05:05:49;11.77;;;1.80;;
55136;SDS011;41032;47.818;-3.732;2022-08-20T05:08:19;3.15;;;1.25;;
55136;SDS011;41032;47.818;-3.732;2022-08-20T05:10:49;5.00;;;1.30;;
55136;SDS011;41032;47.818;-3.732;2022-08-20T05:13:18;4.20;;;1.85;;
55136;SDS011;41032;47.818;-3.732;2022-08-20T05:15:47;6.28;;;1.20;;
55136;SDS011;41032;47.818;-3.732;2022-08-20T05:18:17;3.47;;;1.27;;
55136;SDS011;41032;47.818;-3.732;2022-08-20T05:20:47;3.55;;;1.05;;
55136;SDS011;41032;47.818;-3.732;2022-08-20T05:23:16;5.93;;;1.35;;
55136;SDS011;41032;47.818;-3.732;2022-08-20T05:25:47;5.53;;;1.25;;
55136;SDS011;41032;47.818;-3.732;2022-08-20T05:28:18;8.73;;;1.55;;
55136;SDS011;41032;47.818;-3.732;2022-08-20T05:30:48;4.25;;;1.42;;
55136;SDS011;41032;47.818;-3.732;2022-08-20T05:33:20;7.13;;;1.27;;
55136;SDS011;41032;47.818;-3.732;2022-08-20T05:35:51;4.80;;;1.27;;
55136;SDS011;41032;47.818;-3.732;2022-08-20T05:38:21;10.27;;;1.58;;
55136;SDS011;41032;47.818;-3.732;2022-08-20T05:40:54;5.38;;;1.48;;
55136;SDS011;41032;47.818;-3.732;2022-08-20T05:43:22;8.80;;;1.55;;
55136;SDS011;41032;47.818;-3.732;2022-08-20T05:45:51;6.90;;;1.42;;
55136;SDS011;41032;47.818;-3.732;2022-08-20T05:48:20;6.90;;;1.63;;
55136;SDS011;41032;47.818;-3.732;2022-08-20T05:50:50;5.70;;;1.63;;
55136;SDS011;41032;47.818;-3.732;2022-08-20T05:53:20;6.15;;;1.58;;
55136;SDS011;41032;47.818;-3.732;2022-08-20T05:55:49;8.80;;;2.03;;
55136;SDS011;41032;47.818;-3.732;2022-08-20T05:58:20;2.53;;;1.10;;
55136;SDS011;41032;47.818;-3.732;2022-08-20T06:00:50;4.35;;;1.23;;
55136;SDS011;41032;47.818;-3.732;2022-08-20T06:03:20;6.85;;;1.73;;
55136;SDS011;41032;47.818;-3.732;2022-08-20T06:06:08;5.10;;;1.58;;
55136;SDS011;41032;47.818;-3.732;2022-08-20T06:08:37;2.97;;;1.25;;
55136;SDS011;41032;47.818;-3.732;2022-08-20T06:11:07;3.65;;;1.30;;
55136;SDS011;41032;47.818;-3.732;2022-08-20T06:13:35;8.75;;;1.70;;
55136;SDS011;41032;47.818;-3.732;2022-08-20T06:16:03;5.90;;;1.95;;
55136;SDS011;41032;47.818;-3.732;2022-08-20T06:18:32;7.18;;;1.70;;
55136;SDS011;41032;47.818;-3.732;2022-08-20T06:21:00;6.07;;;1.15;;
55136;SDS011;41032;47.818;-3.732;2022-08-20T06:23:29;4.47;;;1.55;;
55136;SDS011;41032;47.818;-3.732;2022-08-20T06:25:58;5.20;;;1.30;;
55136;SDS011;41032;47.818;-3.732;2022-08-20T06:28:26;4.95;;;1.20;;
55136;SDS011;41032;47.818;-3.732;2022-08-20T06:30:55;4.45;;;1.38;;
55136;SDS011;41032;47.818;-3.732;2022-08-20T06:33:23;8.88;;;1.48;;
55136;SDS011;41032;47.818;-3.732;2022-08-20T06:35:51;3.72;;;1.48;;
55136;SDS011;41032;47.818;-3.732;2022-08-20T06:38:20;4.95;;;1.50;;
55136;SDS011;41032;47.818;-3.732;2022-08-20T06:40:49;9.70;;;1.67;;
55136;SDS011;41032;47.818;-3.732;2022-08-20T06:43:17;6.50;;;1.52;;
55136;SDS011;41032;47.818;-3.732;2022-08-20T06:45:46;6.07;;;1.75;;
55136;SDS011;41032;47.818;-3.732;2022-08-20T06:48:14;14.77;;;1.80;;
55136;SDS011;41032;47.818;-3.732;2022-08-20T06:50:44;4.88;;;1.15;;
55136;SDS011;41032;47.818;-3.732;2022-08-20T06:53:15;6.00;;;1.77;;
55136;SDS011;41032;47.818;-3.732;2022-08-20T06:55:45;4.75;;;1.35;;
55136;SDS011;41032;47.818;-3.732;2022-08-20T06:58:15;5.43;;;1.48;;
55136;SDS011;41032;47.818;-3.732;2022-08-20T07:00:48;6.90;;;1.60;;
55136;SDS011;41032;47.818;-3.732;2022-08-20T07:03:16;5.28;;;1.77;;
55136;SDS011;41032;47.818;-3.732;2022-08-20T07:05:45;5.55;;;1.60;;
55136;SDS011;41032;47.818;-3.732;2022-08-20T07:08:14;4.32;;;1.50;;
55136;SDS011;41032;47.818;-3.732;2022-08-20T07:10:47;5.07;;;1.55;;
55136;SDS011;41032;47.818;-3.732;2022-08-20T07:13:16;5.80;;;1.73;;
55136;SDS011;41032;47.818;-3.732;2022-08-20T07:15:45;6.25;;;1.88;;
55136;SDS011;41032;47.818;-3.732;2022-08-20T07:18:15;6.50;;;1.50;;
55136;SDS011;41032;47.818;-3.732;2022-08-20T07:20:42;7.47;;;2.35;;
55136;SDS011;41032;47.818;-3.732;2022-08-20T07:23:11;4.93;;;1.65;;
55136;SDS011;41032;47.818;-3.732;2022-08-20T07:25:40;5.22;;;1.80;;
55136;SDS011;41032;47.818;-3.732;2022-08-20T07:28:14;7.75;;;2.10;;
55136;SDS011;41032;47.818;-3.732;2022-08-20T07:30:44;7.50;;;1.92;;
55136;SDS011;41032;47.818;-3.732;2022-08-20T07:33:32;11.38;;;2.42;;
55136;SDS011;41032;47.818;-3.732;2022-08-20T07:36:02;11.63;;;2.78;;
55136;SDS011;41032;47.818;-3.732;2022-08-20T07:38:31;9.43;;;2.63;;
55136;SDS011;41032;47.818;-3.732;2022-08-20T07:41:02;10.07;;;2.67;;
55136;SDS011;41032;47.818;-3.732;2022-08-20T07:43:32;14.73;;;3.28;;
55136;SDS011;41032;47.818;-3.732;2022-08-20T07:46:01;13.38;;;2.60;;
55136;SDS011;41032;47.818;-3.732;2022-08-20T07:48:34;11.18;;;3.10;;
55136;SDS011;41032;47.818;-3.732;2022-08-20T07:51:04;11.57;;;2.80;;
55136;SDS011;41032;47.818;-3.732;2022-08-20T07:53:34;13.18;;;3.90;;
55136;SDS011;41032;47.818;-3.732;2022-08-20T07:56:04;14.85;;;4.07;;
55136;SDS011;41032;47.818;-3.732;2022-08-20T07:58:35;15.15;;;3.85;;
55136;SDS011;41032;47.818;-3.732;2022-08-20T08:01:05;10.38;;;3.13;;
55136;SDS011;41032;47.818;-3.732;2022-08-20T08:03:35;10.20;;;3.63;;
55136;SDS011;41032;47.818;-3.732;2022-08-20T08:06:04;10.52;;;2.85;;
55136;SDS011;41032;47.818;-3.732;2022-08-20T08:08:32;17.65;;;3.58;;
55136;SDS011;41032;47.818;-3.732;2022-08-20T08:11:01;14.18;;;3.38;;
55136;SDS011;41032;47.818;-3.732;2022-08-20T08:13:32;16.15;;;3.67;;
55136;SDS011;41032;47.818;-3.732;2022-08-20T08:16:03;11.40;;;3.35;;
55136;SDS011;41032;47.818;-3.732;2022-08-20T08:18:34;14.00;;;3.03;;
55136;SDS011;41032;47.818;-3.732;2022-08-20T08:21:14;14.65;;;2.85;;
55136;SDS011;41032;47.818;-3.732;2022-08-20T08:23:43;12.10;;;3.35;;
55136;SDS011;41032;47.818;-3.732;2022-08-20T08:26:12;14.50;;;4.15;;
55136;SDS011;41032;47.818;-3.732;2022-08-20T08:28:41;15.60;;;3.63;;
55136;SDS011;41032;47.818;-3.732;2022-08-20T08:31:10;13.80;;;3.85;;
55136;SDS011;41032;47.818;-3.732;2022-08-20T08:33:39;11.50;;;3.30;;
55136;SDS011;41032;47.818;-3.732;2022-08-20T08:36:11;19.45;;;4.10;;
55136;SDS011;41032;47.818;-3.732;2022-08-20T08:38:42;16.63;;;3.72;;
55136;SDS011;41032;47.818;-3.732;2022-08-20T08:41:52;15.85;;;3.97;;
55136;SDS011;41032;47.818;-3.732;2022-08-20T08:44:11;16.10;;;3.75;;
55136;SDS011;41032;47.818;-3.732;2022-08-20T08:46:49;14.73;;;4.25;;
55136;SDS011;41032;47.818;-3.732;2022-08-20T08:49:19;17.58;;;5.15;;
55136;SDS011;41032;47.818;-3.732;2022-08-20T08:51:53;14.68;;;4.13;;
55136;SDS011;41032;47.818;-3.732;2022-08-20T08:54:37;19.73;;;4.57;;
55136;SDS011;41032;47.818;-3.732;2022-08-20T08:57:13;23.02;;;3.75;;
55136;SDS011;41032;47.818;-3.732;2022-08-20T08:59:41;15.75;;;3.75;;
55136;SDS011;41032;47.818;-3.732;2022-08-20T09:02:16;18.10;;;4.25;;
55136;SDS011;41032;47.818;-3.732;2022-08-20T09:04:47;15.68;;;4.25;;
55136;SDS011;41032;47.818;-3.732;2022-08-20T09:07:16;11.27;;;3.22;;
55136;SDS011;41032;47.818;-3.732;2022-08-20T09:09:45;17.02;;;3.78;;
55136;SDS011;41032;47.818;-3.732;2022-08-20T09:12:15;13.68;;;3.35;;
55136;SDS011;41032;47.818;-3.732;2022-08-20T09:14:45;14.57;;;3.95;;
55136;SDS011;41032;47.818;-3.732;2022-08-20T09:17:15;15.30;;;4.10;;
55136;SDS011;41032;47.818;-3.732;2022-08-20T09:19:47;16.38;;;4.15;;
55136;SDS011;41032;47.818;-3.732;2022-08-20T09:22:18;16.00;;;3.80;;
55136;SDS011;41032;47.818;-3.732;2022-08-20T09:24:50;13.60;;;4.60;;
55136;SDS011;41032;47.818;-3.732;2022-08-20T09:27:19;13.85;;;4.18;;
55136;SDS011;41032;47.818;-3.732;2022-08-20T09:29:47;14.10;;;3.53;;
55136;SDS011;41032;47.818;-3.732;2022-08-20T09:32:17;17.23;;;4.15;;
55136;SDS011;41032;47.818;-3.732;2022-08-20T09:34:48;16.13;;;4.20;;
55136;SDS011;41032;47.818;-3.732;2022-08-20T09:37:21;12.13;;;3.22;;
55136;SDS011;41032;47.818;-3.732;2022-08-20T09:39:50;18.88;;;4.05;;
55136;SDS011;41032;47.818;-3.732;2022-08-20T09:42:20;12.98;;;3.83;;
55136;SDS011;41032;47.818;-3.732;2022-08-20T09:44:50;13.60;;;4.00;;
55136;SDS011;41032;47.818;-3.732;2022-08-20T09:47:18;15.30;;;4.07;;
55136;SDS011;41032;47.818;-3.732;2022-08-20T09:49:47;22.15;;;5.15;;
55136;SDS011;41032;47.818;-3.732;2022-08-20T09:52:24;20.25;;;4.47;;
55136;SDS011;41032;47.818;-3.732;2022-08-20T09:54:56;14.85;;;4.47;;
55136;SDS011;41032;47.818;-3.732;2022-08-20T09:57:32;19.15;;;3.80;;
55136;SDS011;41032;47.818;-3.732;2022-08-20T10:00:02;16.60;;;4.15;;
55136;SDS011;41032;47.818;-3.732;2022-08-20T10:02:34;21.92;;;3.97;;
55136;SDS011;41032;47.818;-3.732;2022-08-20T10:05:03;15.68;;;3.88;;
55136;SDS011;41032;47.818;-3.732;2022-08-20T10:07:32;18.25;;;4.22;;
55136;SDS011;41032;47.818;-3.732;2022-08-20T10:10:00;18.95;;;4.65;;
55136;SDS011;41032;47.818;-3.732;2022-08-20T10:12:30;18.65;;;4.00;;
55136;SDS011;41032;47.818;-3.732;2022-08-20T10:14:58;15.68;;;4.13;;
55136;SDS011;41032;47.818;-3.732;2022-08-20T10:17:26;11.25;;;3.55;;
55136;SDS011;41032;47.818;-3.732;2022-08-20T10:19:55;14.32;;;3.85;;
55136;SDS011;41032;47.818;-3.732;2022-08-20T10:22:23;14.30;;;3.78;;
55136;SDS011;41032;47.818;-3.732;2022-08-20T10:24:52;16.25;;;3.60;;
55136;SDS011;41032;47.818;-3.732;2022-08-20T10:27:20;16.63;;;4.32;;
55136;SDS011;41032;47.818;-3.732;2022-08-20T10:29:49;24.38;;;4.55;;
55136;SDS011;41032;47.818;-3.732;2022-08-20T10:32:17;16.38;;;4.05;;
55136;SDS011;41032;47.818;-3.732;2022-08-20T10:34:46;12.50;;;3.53;;
55136;SDS011;41032;47.818;-3.732;2022-08-20T10:37:14;12.82;;;3.58;;
55136;SDS011;41032;47.818;-3.732;2022-08-20T10:39:44;16.38;;;3.95;;
55136;SDS011;41032;47.818;-3.732;2022-08-20T10:42:13;13.40;;;4.20;;
55136;SDS011;41032;47.818;-3.732;2022-08-20T10:44:41;15.93;;;3.20;;
55136;SDS011;41032;47.818;-3.732;2022-08-20T10:47:29;16.08;;;3.80;;
55136;SDS011;41032;47.818;-3.732;2022-08-20T10:49:56;15.30;;;4.47;;
55136;SDS011;41032;47.818;-3.732;2022-08-20T10:52:25;18.73;;;4.55;;
55136;SDS011;41032;47.818;-3.732;2022-08-20T10:54:52;17.30;;;4.07;;
55136;SDS011;41032;47.818;-3.732;2022-08-20T10:57:21;11.68;;;3.75;;
55136;SDS011;41032;47.818;-3.732;2022-08-20T10:59:51;15.90;;;4.45;;
55136;SDS011;41032;47.818;-3.732;2022-08-20T11:02:19;16.35;;;3.85;;
55136;SDS011;41032;47.818;-3.732;2022-08-20T11:04:48;16.10;;;3.65;;
55136;SDS011;41032;47.818;-3.732;2022-08-20T11:07:17;14.98;;;3.53;;
55136;SDS011;41032;47.818;-3.732;2022-08-20T11:09:47;17.70;;;4.28;;
55136;SDS011;41032;47.818;-3.732;2022-08-20T11:12:15;16.23;;;4.15;;
55136;SDS011;41032;47.818;-3.732;2022-08-20T11:14:44;16.00;;;3.60;;
55136;SDS011;41032;47.818;-3.732;2022-08-20T11:17:12;13.07;;;3.80;;
55136;SDS011;41032;47.818;-3.732;2022-08-20T11:19:46;17.92;;;4.15;;
55136;SDS011;41032;47.818;-3.732;2022-08-20T11:22:14;18.85;;;4.28;;
55136;SDS011;41032;47.818;-3.732;2022-08-20T11:24:42;19.58;;;4.85;;
55136;SDS011;41032;47.818;-3.732;2022-08-20T11:27:13;19.95;;;4.43;;
55136;SDS011;41032;47.818;-3.732;2022-08-20T11:29:50;13.48;;;3.83;;
55136;SDS011;41032;47.818;-3.732;2022-08-20T11:32:19;15.75;;;3.75;;
55136;SDS011;41032;47.818;-3.732;2022-08-20T11:34:47;15.73;;;3.42;;
55136;SDS011;41032;47.818;-3.732;2022-08-20T11:37:16;15.63;;;3.75;;
55136;SDS011;41032;47.818;-3.732;2022-08-20T11:39:46;14.80;;;3.55;;
55136;SDS011;41032;47.818;-3.732;2022-08-20T11:42:15;17.80;;;3.63;;
55136;SDS011;41032;47.818;-3.732;2022-08-20T11:44:43;15.77;;;4.05;;
55136;SDS011;41032;47.818;-3.732;2022-08-20T11:47:23;15.05;;;4.25;;
55136;SDS011;41032;47.818;-3.732;2022-08-20T11:49:57;15.65;;;3.97;;
55136;SDS011;41032;47.818;-3.732;2022-08-20T11:52:27;16.98;;;4.35;;
55136;SDS011;41032;47.818;-3.732;2022-08-20T11:54:56;10.00;;;3.40;;
55136;SDS011;41032;47.818;-3.732;2022-08-20T11:57:26;12.13;;;3.80;;
55136;SDS011;41032;47.818;-3.732;2022-08-20T11:59:57;19.13;;;4.85;;
55136;SDS011;41032;47.818;-3.732;2022-08-20T12:02:26;16.10;;;3.90;;
55136;SDS011;41032;47.818;-3.732;2022-08-20T12:04:55;16.25;;;3.90;;
55136;SDS011;41032;47.818;-3.732;2022-08-20T12:07:24;15.48;;;3.75;;
55136;SDS011;41032;47.818;-3.732;2022-08-20T12:09:53;14.55;;;3.78;;
55136;SDS011;41032;47.818;-3.732;2022-08-20T12:12:21;11.60;;;3.85;;
55136;SDS011;41032;47.818;-3.732;2022-08-20T12:14:51;15.18;;;3.88;;
55136;SDS011;41032;47.818;-3.732;2022-08-20T12:17:21;20.13;;;5.85;;
55136;SDS011;41032;47.818;-3.732;2022-08-20T12:19:53;24.00;;;11.52;;
55136;SDS011;41032;47.818;-3.732;2022-08-20T12:22:23;28.25;;;10.52;;
55136;SDS011;41032;47.818;-3.732;2022-08-20T12:24:52;28.95;;;8.10;;
55136;SDS011;41032;47.818;-3.732;2022-08-20T12:27:22;16.98;;;4.72;;
55136;SDS011;41032;47.818;-3.732;2022-08-20T12:29:53;12.40;;;3.92;;
55136;SDS011;41032;47.818;-3.732;2022-08-20T12:32:23;14.07;;;3.63;;
55136;SDS011;41032;47.818;-3.732;2022-08-20T12:34:53;12.93;;;3.78;;
55136;SDS011;41032;47.818;-3.732;2022-08-20T12:37:23;19.70;;;4.32;;
55136;SDS011;41032;47.818;-3.732;2022-08-20T12:39:54;16.42;;;3.75;;
55136;SDS011;41032;47.818;-3.732;2022-08-20T12:42:24;18.15;;;4.40;;
55136;SDS011;41032;47.818;-3.732;2022-08-20T12:44:58;14.20;;;3.80;;
55136;SDS011;41032;47.818;-3.732;2022-08-20T12:47:27;15.68;;;3.60;;
55136;SDS011;41032;47.818;-3.732;2022-08-20T12:49:59;13.07;;;3.72;;
55136;SDS011;41032;47.818;-3.732;2022-08-20T12:52:30;17.38;;;4.05;;
55136;SDS011;41032;47.818;-3.732;2022-08-20T12:54:59;14.60;;;3.60;;
55136;SDS011;41032;47.818;-3.732;2022-08-20T12:57:38;16.35;;;3.47;;
55136;SDS011;41032;47.818;-3.732;2022-08-20T13:00:14;11.75;;;3.70;;
55136;SDS011;41032;47.818;-3.732;2022-08-20T13:02:48;13.38;;;4.00;;
55136;SDS011;41032;47.818;-3.732;2022-08-20T13:05:17;14.13;;;3.58;;
55136;SDS011;41032;47.818;-3.732;2022-08-20T13:07:46;15.15;;;3.60;;
55136;SDS011;41032;47.818;-3.732;2022-08-20T13:10:16;12.40;;;3.53;;
55136;SDS011;41032;47.818;-3.732;2022-08-20T13:12:47;12.20;;;4.05;;
55136;SDS011;41032;47.818;-3.732;2022-08-20T13:15:15;12.23;;;3.55;;
55136;SDS011;41032;47.818;-3.732;2022-08-20T13:17:43;14.25;;;3.97;;
55136;SDS011;41032;47.818;-3.732;2022-08-20T13:20:14;14.98;;;4.10;;
55136;SDS011;41032;47.818;-3.732;2022-08-20T13:22:43;16.50;;;3.90;;
55136;SDS011;41032;47.818;-3.732;2022-08-20T13:25:11;16.08;;;3.75;;
55136;SDS011;41032;47.818;-3.732;2022-08-20T13:27:40;14.02;;;3.42;;
55136;SDS011;41032;47.818;-3.732;2022-08-20T13:30:11;19.70;;;4.38;;
55136;SDS011;41032;47.818;-3.732;2022-08-20T13:32:41;13.20;;;3.88;;
55136;SDS011;41032;47.818;-3.732;2022-08-20T13:35:10;12.93;;;3.75;;
55136;SDS011;41032;47.818;-3.732;2022-08-20T13:37:40;13.52;;;3.80;;
55136;SDS011;41032;47.818;-3.732;2022-08-20T13:40:09;18.00;;;4.25;;
55136;SDS011;41032;47.818;-3.732;2022-08-20T13:42:38;12.77;;;3.20;;
55136;SDS011;41032;47.818;-3.732;2022-08-20T13:45:06;15.02;;;3.75;;
55136;SDS011;41032;47.818;-3.732;2022-08-20T13:47:35;13.48;;;3.80;;
55136;SDS011;41032;47.818;-3.732;2022-08-20T13:50:15;13.10;;;3.92;;
55136;SDS011;41032;47.818;-3.732;2022-08-20T13:52:46;13.80;;;4.20;;
55136;SDS011;41032;47.818;-3.732;2022-08-20T13:55:16;13.15;;;3.60;;
55136;SDS011;41032;47.818;-3.732;2022-08-20T13:57:46;13.73;;;3.72;;
55136;SDS011;41032;47.818;-3.732;2022-08-20T14:00:17;13.43;;;3.83;;
55136;SDS011;41032;47.818;-3.732;2022-08-20T14:02:47;14.63;;;3.58;;
55136;SDS011;41032;47.818;-3.732;2022-08-20T14:05:16;14.80;;;3.47;;
55136;SDS011;41032;47.818;-3.732;2022-08-20T14:07:45;12.23;;;3.50;;
55136;SDS011;41032;47.818;-3.732;2022-08-20T14:10:16;13.98;;;3.22;;
55136;SDS011;41032;47.818;-3.732;2022-08-20T14:12:49;12.60;;;3.35;;
55136;SDS011;41032;47.818;-3.732;2022-08-20T14:15:17;17.52;;;4.00;;
55136;SDS011;41032;47.818;-3.732;2022-08-20T14:17:50;10.88;;;2.97;;
55136;SDS011;41032;47.818;-3.732;2022-08-20T14:20:22;12.70;;;3.30;;
55136;SDS011;41032;47.818;-3.732;2022-08-20T14:22:52;17.17;;;4.18;;
55136;SDS011;41032;47.818;-3.732;2022-08-20T14:25:21;11.57;;;3.50;;
55136;SDS011;41032;47.818;-3.732;2022-08-20T14:27:50;11.57;;;3.80;;
55136;SDS011;41032;47.818;-3.732;2022-08-20T14:30:21;17.80;;;4.03;;
55136;SDS011;41032;47.818;-3.732;2022-08-20T14:32:51;14.05;;;4.05;;
55136;SDS011;41032;47.818;-3.732;2022-08-20T14:35:20;14.75;;;3.67;;
55136;SDS011;41032;47.818;-3.732;2022-08-20T14:37:50;14.52;;;3.88;;
55136;SDS011;41032;47.818;-3.732;2022-08-20T14:40:21;17.25;;;3.70;;
55136;SDS011;41032;47.818;-3.732;2022-08-20T14:42:50;16.02;;;3.45;;
55136;SDS011;41032;47.818;-3.732;2022-08-20T14:45:19;16.25;;;3.20;;
55136;SDS011;41032;47.818;-3.732;2022-08-20T14:47:49;11.50;;;3.22;;
55136;SDS011;41032;47.818;-3.732;2022-08-20T14:50:21;12.82;;;3.67;;
55136;SDS011;41032;47.818;-3.732;2022-08-20T14:52:52;14.73;;;4.22;;